sensor_id;sensor_type;location;lat;lon;timestamp;temperature;humidity
38746;DHT22;24488;0.000;0.000;2023-04-16T00:02:10;22.00;37.20
38746;DHT22;24488;0.000;0.000;2023-04-16T00:04:35;22.00;37.20
38746;DHT22;24488;0.000;0.000;2023-04-16T00:07:01;22.00;36.80
38746;DHT22;24488;0.000;0.000;2023-04-16T00:09:27;22.00;37.30
38746;DHT22;24488;0.000;0.000;2023-04-16T00:11:52;21.90;37.20
38746;DHT22;24488;0.000;0.000;2023-04-16T00:14:18;21.90;37.20
38746;DHT22;24488;0.000;0.000;2023-04-16T00:16:43;21.90;36.70
38746;DHT22;24488;0.000;0.000;2023-04-16T00:19:09;21.90;37.20
38746;DHT22;24488;0.000;0.000;2023-04-16T00:21:34;22.00;37.20
38746;DHT22;24488;0.000;0.000;2023-04-16T00:24:00;21.90;37.20
38746;DHT22;24488;0.000;0.000;2023-04-16T00:26:25;21.90;36.80
38746;DHT22;24488;0.000;0.000;2023-04-16T00:28:51;21.90;37.20
38746;DHT22;24488;0.000;0.000;2023-04-16T00:31:17;21.90;37.20
38746;DHT22;24488;0.000;0.000;2023-04-16T00:33:42;22.00;37.20
38746;DHT22;24488;0.000;0.000;2023-04-16T00:36:08;21.90;36.80
38746;DHT22;24488;0.000;0.000;2023-04-16T00:38:33;21.90;37.30
38746;DHT22;24488;0.000;0.000;2023-04-16T00:40:59;22.00;37.30
38746;DHT22;24488;0.000;0.000;2023-04-16T00:43:25;21.90;37.20
38746;DHT22;24488;0.000;0.000;2023-04-16T00:45:51;21.90;36.80
38746;DHT22;24488;0.000;0.000;2023-04-16T00:48:17;21.90;37.20
38746;DHT22;24488;0.000;0.000;2023-04-16T00:50:44;21.90;37.30
38746;DHT22;24488;0.000;0.000;2023-04-16T00:53:10;21.90;37.30
38746;DHT22;24488;0.000;0.000;2023-04-16T00:55:35;21.90;37.30
38746;DHT22;24488;0.000;0.000;2023-04-16T00:58:01;21.90;36.90
38746;DHT22;24488;0.000;0.000;2023-04-16T01:00:27;21.90;37.40
38746;DHT22;24488;0.000;0.000;2023-04-16T01:02:53;21.90;37.30
38746;DHT22;24488;0.000;0.000;2023-04-16T01:05:19;21.90;37.40
38746;DHT22;24488;0.000;0.000;2023-04-16T01:07:45;21.90;36.90
38746;DHT22;24488;0.000;0.000;2023-04-16T01:10:10;21.90;37.40
38746;DHT22;24488;0.000;0.000;2023-04-16T01:12:36;21.90;37.40
38746;DHT22;24488;0.000;0.000;2023-04-16T01:15:01;21.90;37.30
38746;DHT22;24488;0.000;0.000;2023-04-16T01:17:27;21.90;36.90
38746;DHT22;24488;0.000;0.000;2023-04-16T01:19:53;22.00;37.40
38746;DHT22;24488;0.000;0.000;2023-04-16T01:22:19;22.00;37.40
38746;DHT22;24488;0.000;0.000;2023-04-16T01:24:44;22.00;37.40
38746;DHT22;24488;0.000;0.000;2023-04-16T01:27:10;21.90;36.90
38746;DHT22;24488;0.000;0.000;2023-04-16T01:29:35;22.00;37.40
38746;DHT22;24488;0.000;0.000;2023-04-16T01:32:01;22.00;37.40
38746;DHT22;24488;0.000;0.000;2023-04-16T01:34:27;22.00;37.40
38746;DHT22;24488;0.000;0.000;2023-04-16T01:36:52;22.00;36.90
38746;DHT22;24488;0.000;0.000;2023-04-16T01:39:18;21.90;37.30
38746;DHT22;24488;0.000;0.000;2023-04-16T01:41:43;21.90;37.30
38746;DHT22;24488;0.000;0.000;2023-04-16T01:44:09;22.00;37.40
38746;DHT22;24488;0.000;0.000;2023-04-16T01:46:35;22.00;36.90
38746;DHT22;24488;0.000;0.000;2023-04-16T01:49:01;22.00;37.40
38746;DHT22;24488;0.000;0.000;2023-04-16T01:51:28;21.90;37.30
38746;DHT22;24488;0.000;0.000;2023-04-16T01:53:54;22.00;37.30
38746;DHT22;24488;0.000;0.000;2023-04-16T01:56:20;21.90;36.80
38746;DHT22;24488;0.000;0.000;2023-04-16T01:58:45;22.00;37.30
38746;DHT22;24488;0.000;0.000;2023-04-16T02:01:11;21.90;37.20
38746;DHT22;24488;0.000;0.000;2023-04-16T02:03:37;22.00;37.30
38746;DHT22;24488;0.000;0.000;2023-04-16T02:06:03;21.90;36.80
38746;DHT22;24488;0.000;0.000;2023-04-16T02:08:29;21.90;37.30
38746;DHT22;24488;0.000;0.000;2023-04-16T02:10:55;22.00;37.30
38746;DHT22;24488;0.000;0.000;2023-04-16T02:13:21;21.90;37.30
38746;DHT22;24488;0.000;0.000;2023-04-16T02:15:48;21.90;36.80
38746;DHT22;24488;0.000;0.000;2023-04-16T02:18:14;21.90;37.30
38746;DHT22;24488;0.000;0.000;2023-04-16T02:20:43;21.90;37.20
38746;DHT22;24488;0.000;0.000;2023-04-16T02:23:10;21.90;37.20
38746;DHT22;24488;0.000;0.000;2023-04-16T02:25:37;21.90;37.20
38746;DHT22;24488;0.000;0.000;2023-04-16T02:28:05;21.90;36.80
38746;DHT22;24488;0.000;0.000;2023-04-16T02:30:30;21.90;37.20
38746;DHT22;24488;0.000;0.000;2023-04-16T02:32:58;21.90;37.20
38746;DHT22;24488;0.000;0.000;2023-04-16T02:35:23;21.90;37.30
38746;DHT22;24488;0.000;0.000;2023-04-16T02:37:49;21.90;36.80
38746;DHT22;24488;0.000;0.000;2023-04-16T02:40:15;21.90;37.30
38746;DHT22;24488;0.000;0.000;2023-04-16T02:42:40;21.90;37.30
38746;DHT22;24488;0.000;0.000;2023-04-16T02:45:06;21.90;37.30
38746;DHT22;24488;0.000;0.000;2023-04-16T02:47:32;21.90;36.80
38746;DHT22;24488;0.000;0.000;2023-04-16T02:49:57;21.90;37.30
38746;DHT22;24488;0.000;0.000;2023-04-16T02:52:23;21.90;37.30
38746;DHT22;24488;0.000;0.000;2023-04-16T02:54:49;21.90;37.30
38746;DHT22;24488;0.000;0.000;2023-04-16T02:57:14;21.90;36.80
38746;DHT22;24488;0.000;0.000;2023-04-16T02:59:40;21.80;37.30
38746;DHT22;24488;0.000;0.000;2023-04-16T03:02:06;21.90;37.40
38746;DHT22;24488;0.000;0.000;2023-04-16T03:04:31;21.80;37.90
38746;DHT22;24488;0.000;0.000;2023-04-16T03:06:57;21.90;37.00
38746;DHT22;24488;0.000;0.000;2023-04-16T03:09:23;21.80;37.40
38746;DHT22;24488;0.000;0.000;2023-04-16T03:11:48;21.90;37.40
38746;DHT22;24488;0.000;0.000;2023-04-16T03:14:14;21.90;37.40
38746;DHT22;24488;0.000;0.000;2023-04-16T03:16:39;21.90;37.00
38746;DHT22;24488;0.000;0.000;2023-04-16T03:19:05;21.90;37.50
38746;DHT22;24488;0.000;0.000;2023-04-16T03:21:31;21.90;37.50
38746;DHT22;24488;0.000;0.000;2023-04-16T03:23:57;21.90;37.50
38746;DHT22;24488;0.000;0.000;2023-04-16T03:26:22;21.90;37.00
38746;DHT22;24488;0.000;0.000;2023-04-16T03:28:48;21.80;37.50
38746;DHT22;24488;0.000;0.000;2023-04-16T03:31:14;21.90;37.50
38746;DHT22;24488;0.000;0.000;2023-04-16T03:33:39;21.90;37.40
38746;DHT22;24488;0.000;0.000;2023-04-16T03:36:05;21.90;37.00
38746;DHT22;24488;0.000;0.000;2023-04-16T03:38:31;21.80;37.40
38746;DHT22;24488;0.000;0.000;2023-04-16T03:40:56;21.90;37.50
38746;DHT22;24488;0.000;0.000;2023-04-16T03:43:22;21.90;37.40
38746;DHT22;24488;0.000;0.000;2023-04-16T03:45:47;21.90;37.00
38746;DHT22;24488;0.000;0.000;2023-04-16T03:48:13;21.90;37.50
38746;DHT22;24488;0.000;0.000;2023-04-16T03:50:39;21.90;37.40
38746;DHT22;24488;0.000;0.000;2023-04-16T03:53:04;21.90;37.40
38746;DHT22;24488;0.000;0.000;2023-04-16T03:55:30;21.90;37.40
38746;DHT22;24488;0.000;0.000;2023-04-16T03:57:55;21.90;36.90
38746;DHT22;24488;0.000;0.000;2023-04-16T04:00:21;21.90;37.40
38746;DHT22;24488;0.000;0.000;2023-04-16T04:02:47;21.90;36.90
38746;DHT22;24488;0.000;0.000;2023-04-16T04:05:12;21.80;37.30
38746;DHT22;24488;0.000;0.000;2023-04-16T04:07:38;21.90;36.90
38746;DHT22;24488;0.000;0.000;2023-04-16T04:10:03;21.90;37.40
38746;DHT22;24488;0.000;0.000;2023-04-16T04:12:30;21.90;37.40
38746;DHT22;24488;0.000;0.000;2023-04-16T04:14:56;21.90;37.30
38746;DHT22;24488;0.000;0.000;2023-04-16T04:17:22;21.90;36.90
38746;DHT22;24488;0.000;0.000;2023-04-16T04:19:47;21.90;37.40
38746;DHT22;24488;0.000;0.000;2023-04-16T04:22:13;21.80;37.30
38746;DHT22;24488;0.000;0.000;2023-04-16T04:24:38;21.90;37.40
38746;DHT22;24488;0.000;0.000;2023-04-16T04:27:04;21.90;36.90
38746;DHT22;24488;0.000;0.000;2023-04-16T04:29:29;21.80;37.40
38746;DHT22;24488;0.000;0.000;2023-04-16T04:31:55;21.80;37.30
38746;DHT22;24488;0.000;0.000;2023-04-16T04:34:21;21.90;37.40
38746;DHT22;24488;0.000;0.000;2023-04-16T04:36:46;21.80;36.90
38746;DHT22;24488;0.000;0.000;2023-04-16T04:39:12;21.80;37.30
38746;DHT22;24488;0.000;0.000;2023-04-16T04:41:37;21.80;37.30
38746;DHT22;24488;0.000;0.000;2023-04-16T04:44:03;21.80;37.30
38746;DHT22;24488;0.000;0.000;2023-04-16T04:46:29;21.80;36.90
38746;DHT22;24488;0.000;0.000;2023-04-16T04:48:54;21.80;37.40
38746;DHT22;24488;0.000;0.000;2023-04-16T04:51:20;21.80;37.40
38746;DHT22;24488;0.000;0.000;2023-04-16T04:53:45;21.90;37.40
38746;DHT22;24488;0.000;0.000;2023-04-16T04:56:11;21.80;37.00
38746;DHT22;24488;0.000;0.000;2023-04-16T04:58:36;21.80;37.50
38746;DHT22;24488;0.000;0.000;2023-04-16T05:01:02;21.80;37.50
38746;DHT22;24488;0.000;0.000;2023-04-16T05:03:28;21.80;37.50
38746;DHT22;24488;0.000;0.000;2023-04-16T05:05:53;21.80;37.00
38746;DHT22;24488;0.000;0.000;2023-04-16T05:08:19;21.80;37.50
38746;DHT22;24488;0.000;0.000;2023-04-16T05:10:44;21.80;37.50
38746;DHT22;24488;0.000;0.000;2023-04-16T05:13:10;21.80;37.00
38746;DHT22;24488;0.000;0.000;2023-04-16T05:15:36;21.90;37.50
38746;DHT22;24488;0.000;0.000;2023-04-16T05:18:02;21.90;37.50
38746;DHT22;24488;0.000;0.000;2023-04-16T05:20:27;21.90;37.50
38746;DHT22;24488;0.000;0.000;2023-04-16T05:22:53;21.90;37.10
38746;DHT22;24488;0.000;0.000;2023-04-16T05:25:19;21.90;37.50
38746;DHT22;24488;0.000;0.000;2023-04-16T05:27:45;21.90;37.50
38746;DHT22;24488;0.000;0.000;2023-04-16T05:30:11;21.90;37.50
38746;DHT22;24488;0.000;0.000;2023-04-16T05:32:37;21.90;37.10
38746;DHT22;24488;0.000;0.000;2023-04-16T05:35:03;21.90;37.60
38746;DHT22;24488;0.000;0.000;2023-04-16T05:37:29;21.90;37.60
38746;DHT22;24488;0.000;0.000;2023-04-16T05:39:54;21.90;37.50
38746;DHT22;24488;0.000;0.000;2023-04-16T05:42:20;22.00;37.10
38746;DHT22;24488;0.000;0.000;2023-04-16T05:44:46;22.00;37.50
38746;DHT22;24488;0.000;0.000;2023-04-16T05:47:11;22.00;37.60
38746;DHT22;24488;0.000;0.000;2023-04-16T05:49:37;22.00;37.60
38746;DHT22;24488;0.000;0.000;2023-04-16T05:52:03;22.00;37.20
38746;DHT22;24488;0.000;0.000;2023-04-16T05:54:29;22.00;37.70
38746;DHT22;24488;0.000;0.000;2023-04-16T05:56:55;22.00;37.70
38746;DHT22;24488;0.000;0.000;2023-04-16T05:59:20;22.00;37.70
38746;DHT22;24488;0.000;0.000;2023-04-16T06:01:46;22.00;37.70
38746;DHT22;24488;0.000;0.000;2023-04-16T06:04:11;22.00;37.30
38746;DHT22;24488;0.000;0.000;2023-04-16T06:06:37;22.00;37.70
38746;DHT22;24488;0.000;0.000;2023-04-16T06:09:04;22.00;37.70
38746;DHT22;24488;0.000;0.000;2023-04-16T06:11:30;22.10;37.70
38746;DHT22;24488;0.000;0.000;2023-04-16T06:13:55;22.00;37.40
38746;DHT22;24488;0.000;0.000;2023-04-16T06:16:21;22.10;38.20
38746;DHT22;24488;0.000;0.000;2023-04-16T06:18:46;22.10;38.90
38746;DHT22;24488;0.000;0.000;2023-04-16T06:21:12;22.10;38.70
38746;DHT22;24488;0.000;0.000;2023-04-16T06:23:37;22.10;38.10
38746;DHT22;24488;0.000;0.000;2023-04-16T06:26:03;22.10;38.60
38746;DHT22;24488;0.000;0.000;2023-04-16T06:28:29;22.10;38.40
38746;DHT22;24488;0.000;0.000;2023-04-16T06:30:54;22.10;38.70
38746;DHT22;24488;0.000;0.000;2023-04-16T06:33:20;22.10;38.20
38746;DHT22;24488;0.000;0.000;2023-04-16T06:35:45;22.10;38.60
38746;DHT22;24488;0.000;0.000;2023-04-16T06:38:11;22.10;38.50
38746;DHT22;24488;0.000;0.000;2023-04-16T06:40:37;22.10;38.40
38746;DHT22;24488;0.000;0.000;2023-04-16T06:43:02;22.10;37.90
38746;DHT22;24488;0.000;0.000;2023-04-16T06:45:28;22.10;38.30
38746;DHT22;24488;0.000;0.000;2023-04-16T06:47:53;22.10;38.30
38746;DHT22;24488;0.000;0.000;2023-04-16T06:50:19;22.10;38.30
38746;DHT22;24488;0.000;0.000;2023-04-16T06:52:45;22.10;37.70
38746;DHT22;24488;0.000;0.000;2023-04-16T06:55:11;22.10;38.20
38746;DHT22;24488;0.000;0.000;2023-04-16T06:57:36;22.10;38.20
38746;DHT22;24488;0.000;0.000;2023-04-16T07:00:02;22.10;38.20
38746;DHT22;24488;0.000;0.000;2023-04-16T07:02:29;22.10;37.60
38746;DHT22;24488;0.000;0.000;2023-04-16T07:04:55;22.10;38.10
38746;DHT22;24488;0.000;0.000;2023-04-16T07:07:20;22.10;38.10
38746;DHT22;24488;0.000;0.000;2023-04-16T07:09:46;22.10;38.00
38746;DHT22;24488;0.000;0.000;2023-04-16T07:12:11;22.10;37.60
38746;DHT22;24488;0.000;0.000;2023-04-16T07:14:37;22.10;38.10
38746;DHT22;24488;0.000;0.000;2023-04-16T07:17:03;22.10;38.00
38746;DHT22;24488;0.000;0.000;2023-04-16T07:19:28;22.10;38.00
38746;DHT22;24488;0.000;0.000;2023-04-16T07:21:57;22.10;37.50
38746;DHT22;24488;0.000;0.000;2023-04-16T07:24:23;22.10;38.00
38746;DHT22;24488;0.000;0.000;2023-04-16T07:26:49;22.10;38.00
38746;DHT22;24488;0.000;0.000;2023-04-16T07:29:14;22.10;37.90
38746;DHT22;24488;0.000;0.000;2023-04-16T07:31:40;22.10;37.90
38746;DHT22;24488;0.000;0.000;2023-04-16T07:34:05;22.10;37.50
38746;DHT22;24488;0.000;0.000;2023-04-16T07:36:31;22.10;38.00
38746;DHT22;24488;0.000;0.000;2023-04-16T07:38:57;22.20;38.00
38746;DHT22;24488;0.000;0.000;2023-04-16T07:41:22;22.10;38.00
38746;DHT22;24488;0.000;0.000;2023-04-16T07:43:48;22.10;37.50
38746;DHT22;24488;0.000;0.000;2023-04-16T07:46:13;22.10;38.00
38746;DHT22;24488;0.000;0.000;2023-04-16T07:48:39;22.10;37.90
38746;DHT22;24488;0.000;0.000;2023-04-16T07:51:05;22.10;37.90
38746;DHT22;24488;0.000;0.000;2023-04-16T07:53:30;22.10;37.40
38746;DHT22;24488;0.000;0.000;2023-04-16T07:55:56;22.10;38.10
38746;DHT22;24488;0.000;0.000;2023-04-16T07:58:21;22.10;37.90
38746;DHT22;24488;0.000;0.000;2023-04-16T08:00:47;22.10;37.90
38746;DHT22;24488;0.000;0.000;2023-04-16T08:03:12;22.10;37.40
38746;DHT22;24488;0.000;0.000;2023-04-16T08:05:40;22.10;37.90
38746;DHT22;24488;0.000;0.000;2023-04-16T08:08:05;22.10;37.80
38746;DHT22;24488;0.000;0.000;2023-04-16T08:10:31;22.10;37.80
38746;DHT22;24488;0.000;0.000;2023-04-16T08:12:58;22.10;37.40
38746;DHT22;24488;0.000;0.000;2023-04-16T08:15:25;22.10;37.90
38746;DHT22;24488;0.000;0.000;2023-04-16T08:17:50;22.10;37.90
38746;DHT22;24488;0.000;0.000;2023-04-16T08:20:16;22.10;37.90
38746;DHT22;24488;0.000;0.000;2023-04-16T08:22:42;22.10;37.40
38746;DHT22;24488;0.000;0.000;2023-04-16T08:25:07;22.10;37.80
38746;DHT22;24488;0.000;0.000;2023-04-16T08:27:33;22.10;37.80
38746;DHT22;24488;0.000;0.000;2023-04-16T08:29:59;22.10;37.80
38746;DHT22;24488;0.000;0.000;2023-04-16T08:32:25;22.10;37.40
38746;DHT22;24488;0.000;0.000;2023-04-16T08:34:51;22.10;37.80
38746;DHT22;24488;0.000;0.000;2023-04-16T08:37:16;22.10;37.80
38746;DHT22;24488;0.000;0.000;2023-04-16T08:39:42;22.10;37.80
38746;DHT22;24488;0.000;0.000;2023-04-16T08:42:10;22.10;37.30
38746;DHT22;24488;0.000;0.000;2023-04-16T08:44:40;22.10;37.70
38746;DHT22;24488;0.000;0.000;2023-04-16T08:47:08;22.10;37.80
38746;DHT22;24488;0.000;0.000;2023-04-16T08:49:34;22.10;37.80
38746;DHT22;24488;0.000;0.000;2023-04-16T08:52:01;22.10;37.30
38746;DHT22;24488;0.000;0.000;2023-04-16T08:54:40;22.10;37.80
38746;DHT22;24488;0.000;0.000;2023-04-16T08:57:09;22.20;37.80
38746;DHT22;24488;0.000;0.000;2023-04-16T08:59:36;22.10;37.70
38746;DHT22;24488;0.000;0.000;2023-04-16T09:02:02;22.10;37.30
38746;DHT22;24488;0.000;0.000;2023-04-16T09:04:30;22.20;37.80
38746;DHT22;24488;0.000;0.000;2023-04-16T09:06:56;22.20;37.90
38746;DHT22;24488;0.000;0.000;2023-04-16T09:09:22;22.20;37.80
38746;DHT22;24488;0.000;0.000;2023-04-16T09:14:17;22.20;37.40
38746;DHT22;24488;0.000;0.000;2023-04-16T09:16:43;22.20;37.90
38746;DHT22;24488;0.000;0.000;2023-04-16T09:19:10;22.20;37.90
38746;DHT22;24488;0.000;0.000;2023-04-16T09:21:35;22.20;37.90
38746;DHT22;24488;0.000;0.000;2023-04-16T09:24:01;22.10;37.40
38746;DHT22;24488;0.000;0.000;2023-04-16T09:26:27;22.10;37.80
38746;DHT22;24488;0.000;0.000;2023-04-16T09:28:53;22.20;37.80
38746;DHT22;24488;0.000;0.000;2023-04-16T09:31:19;22.10;37.80
38746;DHT22;24488;0.000;0.000;2023-04-16T09:34:06;22.20;37.40
38746;DHT22;24488;0.000;0.000;2023-04-16T09:36:33;22.10;37.80
38746;DHT22;24488;0.000;0.000;2023-04-16T09:39:00;22.20;37.90
38746;DHT22;24488;0.000;0.000;2023-04-16T09:41:26;22.20;37.90
38746;DHT22;24488;0.000;0.000;2023-04-16T09:43:57;22.20;37.40
38746;DHT22;24488;0.000;0.000;2023-04-16T09:49:09;22.10;38.30
38746;DHT22;24488;0.000;0.000;2023-04-16T09:51:41;22.10;37.80
38746;DHT22;24488;0.000;0.000;2023-04-16T09:54:07;22.10;37.30
38746;DHT22;24488;0.000;0.000;2023-04-16T09:56:38;22.10;37.80
38746;DHT22;24488;0.000;0.000;2023-04-16T09:59:05;22.10;37.70
38746;DHT22;24488;0.000;0.000;2023-04-16T10:01:30;22.10;37.80
38746;DHT22;24488;0.000;0.000;2023-04-16T10:03:57;22.10;37.30
38746;DHT22;24488;0.000;0.000;2023-04-16T10:06:22;22.10;37.80
38746;DHT22;24488;0.000;0.000;2023-04-16T10:08:52;22.20;37.80
38746;DHT22;24488;0.000;0.000;2023-04-16T10:11:21;22.20;37.80
38746;DHT22;24488;0.000;0.000;2023-04-16T10:13:47;22.20;37.40
38746;DHT22;24488;0.000;0.000;2023-04-16T10:16:13;22.10;37.80
38746;DHT22;24488;0.000;0.000;2023-04-16T10:18:41;22.20;37.80
38746;DHT22;24488;0.000;0.000;2023-04-16T10:21:08;22.30;37.90
38746;DHT22;24488;0.000;0.000;2023-04-16T10:23:40;22.10;37.30
38746;DHT22;24488;0.000;0.000;2023-04-16T10:26:06;22.20;37.90
38746;DHT22;24488;0.000;0.000;2023-04-16T10:28:31;22.20;37.90
38746;DHT22;24488;0.000;0.000;2023-04-16T10:31:00;22.20;37.80
38746;DHT22;24488;0.000;0.000;2023-04-16T10:33:28;22.20;37.40
38746;DHT22;24488;0.000;0.000;2023-04-16T10:36:06;22.20;37.90
38746;DHT22;24488;0.000;0.000;2023-04-16T10:38:36;22.20;37.80
38746;DHT22;24488;0.000;0.000;2023-04-16T10:41:04;22.20;37.80
38746;DHT22;24488;0.000;0.000;2023-04-16T10:43:32;22.20;37.40
38746;DHT22;24488;0.000;0.000;2023-04-16T10:48:53;22.20;37.80
38746;DHT22;24488;0.000;0.000;2023-04-16T10:51:31;22.20;37.80
38746;DHT22;24488;0.000;0.000;2023-04-16T10:56:32;22.10;37.80
38746;DHT22;24488;0.000;0.000;2023-04-16T10:58:58;22.20;37.80
38746;DHT22;24488;0.000;0.000;2023-04-16T11:01:33;22.10;37.70
38746;DHT22;24488;0.000;0.000;2023-04-16T11:07:19;22.10;37.80
38746;DHT22;24488;0.000;0.000;2023-04-16T11:09:44;22.20;37.80
38746;DHT22;24488;0.000;0.000;2023-04-16T11:15:00;22.20;37.30
38746;DHT22;24488;0.000;0.000;2023-04-16T11:17:44;22.20;37.30
38746;DHT22;24488;0.000;0.000;2023-04-16T11:22:44;22.20;37.80
38746;DHT22;24488;0.000;0.000;2023-04-16T11:25:10;22.10;37.70
38746;DHT22;24488;0.000;0.000;2023-04-16T11:27:36;22.10;37.30
38746;DHT22;24488;0.000;0.000;2023-04-16T11:30:03;22.20;37.80
38746;DHT22;24488;0.000;0.000;2023-04-16T11:32:30;22.20;37.80
38746;DHT22;24488;0.000;0.000;2023-04-16T11:34:57;22.20;37.80
38746;DHT22;24488;0.000;0.000;2023-04-16T11:37:30;22.20;37.30
38746;DHT22;24488;0.000;0.000;2023-04-16T11:40:00;22.20;37.80
38746;DHT22;24488;0.000;0.000;2023-04-16T11:42:29;22.20;37.80
38746;DHT22;24488;0.000;0.000;2023-04-16T11:44:55;22.20;37.80
38746;DHT22;24488;0.000;0.000;2023-04-16T11:47:24;22.20;37.30
38746;DHT22;24488;0.000;0.000;2023-04-16T11:49:50;22.20;37.80
38746;DHT22;24488;0.000;0.000;2023-04-16T11:52:29;22.30;37.80
38746;DHT22;24488;0.000;0.000;2023-04-16T11:54:56;22.20;37.80
38746;DHT22;24488;0.000;0.000;2023-04-16T11:57:23;22.40;37.40
38746;DHT22;24488;0.000;0.000;2023-04-16T11:59:49;22.20;37.80
38746;DHT22;24488;0.000;0.000;2023-04-16T12:02:15;22.20;37.80
38746;DHT22;24488;0.000;0.000;2023-04-16T12:04:40;22.10;37.70
38746;DHT22;24488;0.000;0.000;2023-04-16T12:07:10;22.20;37.40
38746;DHT22;24488;0.000;0.000;2023-04-16T12:09:39;22.20;37.80
38746;DHT22;24488;0.000;0.000;2023-04-16T12:12:28;22.20;37.80
38746;DHT22;24488;0.000;0.000;2023-04-16T12:14:55;22.20;37.80
38746;DHT22;24488;0.000;0.000;2023-04-16T12:17:21;22.10;37.30
38746;DHT22;24488;0.000;0.000;2023-04-16T12:19:49;22.20;37.80
38746;DHT22;24488;0.000;0.000;2023-04-16T12:22:15;22.10;37.80
38746;DHT22;24488;0.000;0.000;2023-04-16T12:24:41;22.20;37.80
38746;DHT22;24488;0.000;0.000;2023-04-16T12:27:07;22.20;37.30
38746;DHT22;24488;0.000;0.000;2023-04-16T12:29:33;22.20;37.80
38746;DHT22;24488;0.000;0.000;2023-04-16T12:31:58;22.20;37.80
38746;DHT22;24488;0.000;0.000;2023-04-16T12:34:24;22.20;37.80
38746;DHT22;24488;0.000;0.000;2023-04-16T12:37:02;22.20;37.30
38746;DHT22;24488;0.000;0.000;2023-04-16T12:39:30;22.20;37.80
38746;DHT22;24488;0.000;0.000;2023-04-16T12:41:56;22.20;37.80
38746;DHT22;24488;0.000;0.000;2023-04-16T12:44:21;22.10;37.70
38746;DHT22;24488;0.000;0.000;2023-04-16T12:46:47;22.20;37.30
38746;DHT22;24488;0.000;0.000;2023-04-16T12:49:12;22.20;37.80
38746;DHT22;24488;0.000;0.000;2023-04-16T12:51:38;22.10;37.70
38746;DHT22;24488;0.000;0.000;2023-04-16T12:54:04;22.30;37.80
38746;DHT22;24488;0.000;0.000;2023-04-16T12:58:57;22.20;37.30
38746;DHT22;24488;0.000;0.000;2023-04-16T13:01:23;22.20;37.80
38746;DHT22;24488;0.000;0.000;2023-04-16T13:03:49;22.20;37.80
38746;DHT22;24488;0.000;0.000;2023-04-16T13:06:15;22.20;37.80
38746;DHT22;24488;0.000;0.000;2023-04-16T13:08:41;22.20;37.30
38746;DHT22;24488;0.000;0.000;2023-04-16T13:11:08;21.40;36.90
38746;DHT22;24488;0.000;0.000;2023-04-16T13:13:34;22.20;37.80
38746;DHT22;24488;0.000;0.000;2023-04-16T13:15:59;22.20;37.80
38746;DHT22;24488;0.000;0.000;2023-04-16T13:18:25;22.20;37.30
38746;DHT22;24488;0.000;0.000;2023-04-16T13:20:52;22.20;37.80
38746;DHT22;24488;0.000;0.000;2023-04-16T13:23:18;22.20;37.30
38746;DHT22;24488;0.000;0.000;2023-04-16T13:25:44;22.20;37.80
38746;DHT22;24488;0.000;0.000;2023-04-16T13:28:09;22.20;37.30
38746;DHT22;24488;0.000;0.000;2023-04-16T13:30:35;22.20;37.80
38746;DHT22;24488;0.000;0.000;2023-04-16T13:33:01;22.20;37.70
38746;DHT22;24488;0.000;0.000;2023-04-16T13:35:28;22.90;38.20
38746;DHT22;24488;0.000;0.000;2023-04-16T13:37:53;22.20;37.30
38746;DHT22;24488;0.000;0.000;2023-04-16T13:40:19;22.20;37.80
38746;DHT22;24488;0.000;0.000;2023-04-16T13:42:45;22.20;37.80
38746;DHT22;24488;0.000;0.000;2023-04-16T13:45:10;22.20;37.80
38746;DHT22;24488;0.000;0.000;2023-04-16T13:47:37;22.20;37.30
38746;DHT22;24488;0.000;0.000;2023-04-16T13:50:04;22.20;37.70
38746;DHT22;24488;0.000;0.000;2023-04-16T13:52:30;22.20;37.70
38746;DHT22;24488;0.000;0.000;2023-04-16T13:54:56;22.20;37.70
38746;DHT22;24488;0.000;0.000;2023-04-16T13:57:21;22.20;37.30
38746;DHT22;24488;0.000;0.000;2023-04-16T13:59:47;22.20;37.80
38746;DHT22;24488;0.000;0.000;2023-04-16T14:02:12;22.20;37.80
38746;DHT22;24488;0.000;0.000;2023-04-16T14:04:38;23.30;38.40
38746;DHT22;24488;0.000;0.000;2023-04-16T14:07:03;22.20;37.30
38746;DHT22;24488;0.000;0.000;2023-04-16T14:09:29;22.20;37.80
38746;DHT22;24488;0.000;0.000;2023-04-16T14:11:55;22.20;38.30
38746;DHT22;24488;0.000;0.000;2023-04-16T14:14:21;22.20;37.70
38746;DHT22;24488;0.000;0.000;2023-04-16T14:16:46;22.20;37.30
38746;DHT22;24488;0.000;0.000;2023-04-16T14:19:12;22.20;37.70
38746;DHT22;24488;0.000;0.000;2023-04-16T14:21:37;22.20;37.70
38746;DHT22;24488;0.000;0.000;2023-04-16T14:24:03;22.20;37.80
38746;DHT22;24488;0.000;0.000;2023-04-16T14:26:29;22.20;37.80
38746;DHT22;24488;0.000;0.000;2023-04-16T14:28:55;22.20;37.30
38746;DHT22;24488;0.000;0.000;2023-04-16T14:31:20;22.20;37.80
38746;DHT22;24488;0.000;0.000;2023-04-16T14:33:46;22.20;37.60
38746;DHT22;24488;0.000;0.000;2023-04-16T14:36:12;22.20;37.60
38746;DHT22;24488;0.000;0.000;2023-04-16T14:38:37;22.10;37.20
38746;DHT22;24488;0.000;0.000;2023-04-16T14:41:03;22.10;37.70
38746;DHT22;24488;0.000;0.000;2023-04-16T14:43:29;22.20;37.70
38746;DHT22;24488;0.000;0.000;2023-04-16T14:45:55;22.20;37.70
38746;DHT22;24488;0.000;0.000;2023-04-16T14:48:22;22.20;37.20
38746;DHT22;24488;0.000;0.000;2023-04-16T14:50:48;22.20;37.70
38746;DHT22;24488;0.000;0.000;2023-04-16T14:53:13;22.20;37.70
38746;DHT22;24488;0.000;0.000;2023-04-16T14:55:39;22.20;37.70
38746;DHT22;24488;0.000;0.000;2023-04-16T14:58:05;22.20;37.30
38746;DHT22;24488;0.000;0.000;2023-04-16T15:00:31;22.00;37.60
38746;DHT22;24488;0.000;0.000;2023-04-16T15:02:58;22.20;37.70
38746;DHT22;24488;0.000;0.000;2023-04-16T15:05:24;22.20;37.70
38746;DHT22;24488;0.000;0.000;2023-04-16T15:07:49;22.20;37.20
38746;DHT22;24488;0.000;0.000;2023-04-16T15:10:15;22.20;37.70
38746;DHT22;24488;0.000;0.000;2023-04-16T15:12:41;22.20;37.70
38746;DHT22;24488;0.000;0.000;2023-04-16T15:15:06;22.20;37.70
38746;DHT22;24488;0.000;0.000;2023-04-16T15:17:32;22.20;37.30
38746;DHT22;24488;0.000;0.000;2023-04-16T15:19:58;22.30;37.80
38746;DHT22;24488;0.000;0.000;2023-04-16T15:22:24;22.20;37.70
38746;DHT22;24488;0.000;0.000;2023-04-16T15:24:50;22.10;37.70
38746;DHT22;24488;0.000;0.000;2023-04-16T15:27:16;22.20;37.30
38746;DHT22;24488;0.000;0.000;2023-04-16T15:29:42;22.20;37.70
38746;DHT22;24488;0.000;0.000;2023-04-16T15:32:10;22.20;37.70
38746;DHT22;24488;0.000;0.000;2023-04-16T15:34:36;22.20;37.70
38746;DHT22;24488;0.000;0.000;2023-04-16T15:37:02;22.20;37.30
38746;DHT22;24488;0.000;0.000;2023-04-16T15:39:27;22.20;37.30
38746;DHT22;24488;0.000;0.000;2023-04-16T15:41:54;22.20;37.80
38746;DHT22;24488;0.000;0.000;2023-04-16T15:44:21;22.20;37.70
38746;DHT22;24488;0.000;0.000;2023-04-16T15:46:47;22.20;37.30
38746;DHT22;24488;0.000;0.000;2023-04-16T15:49:12;22.20;37.80
38746;DHT22;24488;0.000;0.000;2023-04-16T15:51:38;22.20;37.80
38746;DHT22;24488;0.000;0.000;2023-04-16T15:54:04;22.20;37.80
38746;DHT22;24488;0.000;0.000;2023-04-16T15:56:30;22.20;37.80
38746;DHT22;24488;0.000;0.000;2023-04-16T15:58:55;22.20;37.30
38746;DHT22;24488;0.000;0.000;2023-04-16T16:01:21;22.20;37.80